avis per tempestes more information blitzortung!


avis per Pluja more information rain snow radar


Visita la nostra xarxa de llocs de meteo:

Template documentation
and downloads

And another site



Rain From: 17-08-2018 13:00 Until: 22:59 warning for: Rain Level: Orange info button
Thunderstorms From: 17-08-2018 12:00 Until: 18-08-2018 08:59 warning for: Thunderstorms Level: Yellow info button

Pagina Historial Weather Underground text

Diari Resum Juliol 13, 2017 Unitats:  Mètric    Imperial   Tant
« Previous Dia
SegĂźent Dia »
Diari Setmana Mensual Anual Personalitzada
  Maxima: Minima: Media:
Temperatura: -17.8 °C -5.9 °C -2.6 °C
Punt de rosada: -17.8 °C -7.4 °C -6.7 °C
Humitat: Humidity % 52 % 65 %
Wind Speed: 0 km/h 0 km/h 12.9 km/h
RĂ fegues de vent: 0 km/h - -
Vent:- - South
Pression baro: 0 hPa 34293.4 hPa -
Precipitacions: 0 mm    
Historical Graphs
 
 
Dades de taula per Juliol 13, 2017
Temps Temperatura Punt de rosada Pression baro Vent Wind Speed RĂ fegues de vent Humitat Rainfall Rate (Hourly)
-17.8 °C -17.8 °C 0 hPa Calm     Humidity % 0 mm
00:03 -4.4 °C -6.9 °C 34462.7 hPa NE 6.3 km/h 6.3 km/h 76 % 0 mm
00:05 -5.6 °C -7.1 °C 34462.7 hPa Calm     84 % 0 mm
00:15 -5.6 °C -7.1 °C 34462.7 hPa Calm     84 % 0 mm
00:25 -5.6 °C -7.1 °C 34462.7 hPa Calm     85 % 0 mm
00:35 -5.6 °C -7.1 °C 34462.7 hPa Calm     85 % 0 mm
00:45 -5.7 °C -7.2 °C 34462.7 hPa Calm     85 % 0 mm
00:55 -5.8 °C -7.3 °C 34462.7 hPa Calm   2.6 km/h 85 % 0 mm
01:05 -5.9 °C -7.3 °C 34462.7 hPa West 5.1 km/h 5.1 km/h 85 % 0 mm
01:15 -5.9 °C -7.4 °C 34462.7 hPa WSW 2.6 km/h 5.1 km/h 85 % 0 mm
01:25 -5.9 °C -7.3 °C 34462.7 hPa SW 2.6 km/h 5.1 km/h 86 % 0 mm
01:35 -5.9 °C -7.3 °C 34462.7 hPa Calm   5.1 km/h 86 % 0 mm
01:45 -5.9 °C -7.3 °C 34428.8 hPa Calm   2.6 km/h 86 % 0 mm
01:55 -5.9 °C -7.1 °C 34428.8 hPa Calm     87 % 0 mm
02:05 -5.9 °C -7.3 °C 34462.7 hPa North 2.6 km/h 5.1 km/h 86 % 0 mm
02:15 -5.8 °C -7.2 °C 34428.8 hPa NE 2.6 km/h 2.6 km/h 86 % 0 mm
02:25 -5.7 °C -7.1 °C 34428.8 hPa NE 5.1 km/h 7.7 km/h 85 % 0 mm
02:35 -5.6 °C -7.1 °C 34462.7 hPa NE 2.6 km/h 5.1 km/h 85 % 0 mm
02:45 -5.6 °C -7.2 °C 34462.7 hPa ENE 5.1 km/h 7.7 km/h 84 % 0 mm
02:55 -5.6 °C -7.2 °C 34462.7 hPa ENE 2.6 km/h 5.1 km/h 84 % 0 mm
03:05 -5.6 °C -7.1 °C 34462.7 hPa Calm   5.1 km/h 84 % 0 mm
03:15 -5.5 °C -7.2 °C 34428.8 hPa SW 5.1 km/h 7.7 km/h 83 % 0 mm
03:25 -5.5 °C -7.1 °C 34428.8 hPa SW 2.6 km/h 5.1 km/h 84 % 0 mm
03:35 -5.4 °C -7 °C 34462.7 hPa SW 2.6 km/h 5.1 km/h 84 % 0 mm
03:45 -5.2 °C -6.9 °C 34462.7 hPa SW 2.6 km/h 5.1 km/h 83 % 0 mm
03:55 -5 °C -6.8 °C 34462.7 hPa SW 2.6 km/h 5.1 km/h 82 % 0 mm
04:05 -4.7 °C -6.6 °C 34462.7 hPa SW 2.6 km/h 5.1 km/h 82 % 0 mm
04:15 -4.6 °C -6.5 °C 34462.7 hPa SW 2.6 km/h 5.1 km/h 81 % 0 mm
04:25 -4.2 °C -6.3 °C 34462.7 hPa SW 2.6 km/h 5.1 km/h 80 % 0 mm
04:35 -3.8 °C -6.1 °C 34462.7 hPa SSW 7.7 km/h 7.7 km/h 78 % 0 mm
04:45 -3.3 °C -5.8 °C 34462.7 hPa SW 5.1 km/h 7.7 km/h 76 % 0 mm
04:55 -3 °C -5.8 °C 34462.7 hPa SW 7.7 km/h 15.6 km/h 74 % 0 mm
05:05 -3 °C -5.9 °C 34462.7 hPa SSW 7.7 km/h 12.9 km/h 73 % 0 mm
05:15 -2.9 °C -6.1 °C 34462.7 hPa SW 7.7 km/h 10.3 km/h 71 % 0 mm
05:25 -2.7 °C -6.2 °C 34462.7 hPa SW 7.7 km/h 10.3 km/h 69 % 0 mm
05:35 -2.6 °C -6.3 °C 34462.7 hPa SW 7.7 km/h 15.6 km/h 67 % 0 mm
05:45 -2.2 °C -6.2 °C 34462.7 hPa SW 7.7 km/h 20.8 km/h 65 % 0 mm
05:55 -2.3 °C -6.4 °C 34462.7 hPa SW 7.7 km/h 20.8 km/h 64 % 0 mm
06:05 -2.1 °C -6.6 °C 34462.7 hPa WSW 18.2 km/h 20.8 km/h 62 % 0 mm
06:15 -1.8 °C -6.3 °C 34428.8 hPa WSW 15.6 km/h 15.6 km/h 61 % 0 mm
06:25 -1.5 °C -6.4 °C 34428.8 hPa SW 12.9 km/h 20.8 km/h 59 % 0 mm
06:35 -1.3 °C -6.2 °C 34462.7 hPa WSW 7.7 km/h 18.2 km/h 59 % 0 mm
06:45 -1.6 °C -6.7 °C 34462.7 hPa SW 7.7 km/h 15.6 km/h 58 % 0 mm
06:55 -1.3 °C -6.5 °C 34462.7 hPa SW 18.2 km/h 31.1 km/h 57 % 0 mm
07:05 -1.1 °C -6.3 °C 34462.7 hPa SW 7.7 km/h 15.6 km/h 57 % 0 mm
07:15 -0.9 °C -6.2 °C 34462.7 hPa SW 12.9 km/h 18.2 km/h 57 % 0 mm
12:22 -0.9 °C -6.3 °C 34462.7 hPa SW 15 km/h 15 km/h 56 % 0 mm
12:27 -0.7 °C -6.3 °C 34462.7 hPa SW 15 km/h 15 km/h 55 % 0 mm
12:32 -0.9 °C -6.5 °C 34462.7 hPa WSW 15.6 km/h 17.4 km/h 55 % 0 mm
12:37 -0.8 °C -6.4 °C 34462.7 hPa SSW 17.9 km/h 17.9 km/h 55 % 0 mm
12:42 -0.8 °C -6.4 °C 34462.7 hPa South 32.8 km/h 32.8 km/h 55 % 0 mm
12:47 -0.9 °C -6.5 °C 34462.7 hPa SW 15.3 km/h 15.3 km/h 55 % 0 mm
12:52 -1.1 °C -6.6 °C 34462.7 hPa SW 29.8 km/h 29.8 km/h 55 % 0 mm
12:57 -1.2 °C -6.6 °C 34462.7 hPa SW 20.9 km/h 20.9 km/h 56 % 0 mm
13:02 -1 °C -6.6 °C 34462.7 hPa WSW 23.8 km/h 23.8 km/h 55 % 0 mm
13:07 -0.9 °C -6.5 °C 34462.7 hPa SW 27.7 km/h 27.7 km/h 55 % 0 mm
13:12 -1.2 °C -6.6 °C 34428.8 hPa WSW 26.9 km/h 26.9 km/h 56 % 0 mm
13:17 -1.1 °C -6.5 °C 34428.8 hPa South 20.9 km/h 20.9 km/h 56 % 0 mm
13:22 -1.2 °C -6.6 °C 34428.8 hPa SW 23.8 km/h 23.8 km/h 56 % 0 mm
13:27 -1 °C -6.4 °C 34428.8 hPa SW 17.9 km/h 17.9 km/h 56 % 0 mm
13:32 -1.1 °C -6.5 °C 34428.8 hPa SSW 15 km/h 15 km/h 56 % 0 mm
13:37 -1.2 °C -6.6 °C 34428.8 hPa SW 26.9 km/h 26.9 km/h 56 % 0 mm
13:42 -1.2 °C -6.6 °C 34395 hPa WSW 20.9 km/h 20.9 km/h 56 % 0 mm
13:47 -0.9 °C -6.5 °C 34395 hPa SW 22.5 km/h 22.5 km/h 55 % 0 mm
13:52 -1.1 °C -6.6 °C 34395 hPa South 20.9 km/h 20.9 km/h 55 % 0 mm
13:57 -1.1 °C -6.7 °C 34395 hPa SW 23.8 km/h 23.8 km/h 55 % 0 mm
14:02 -1.1 °C -6.6 °C 34395 hPa WSW 19.2 km/h 19.2 km/h 55 % 0 mm
14:07 -0.9 °C -6.5 °C 34395 hPa SSW 15 km/h 15 km/h 55 % 0 mm
14:12 -1.2 °C -6.6 °C 34395 hPa West 26.9 km/h 26.9 km/h 56 % 0 mm
14:17 -1.1 °C -6.7 °C 34395 hPa SW 23.8 km/h 23.8 km/h 55 % 0 mm
14:22 -0.9 °C -6.5 °C 34395 hPa SSW 9 km/h 9.8 km/h 55 % 0 mm
14:27 -0.7 °C -6.3 °C 34395 hPa SW 26.9 km/h 26.9 km/h 55 % 0 mm
14:32 -0.8 °C -6.3 °C 34395 hPa ESE 35.7 km/h 35.7 km/h 55 % 0 mm
14:37 -1.1 °C -6.6 °C 34395 hPa SW 32.8 km/h 32.8 km/h 55 % 0 mm
14:42 -1.1 °C -6.6 °C 34395 hPa SW 29.8 km/h 29.8 km/h 55 % 0 mm
14:47 -1.3 °C -6.7 °C 34395 hPa South 20.9 km/h 20.9 km/h 56 % 0 mm
14:52 -1.3 °C -6.7 °C 34395 hPa SW 23.8 km/h 23.8 km/h 56 % 0 mm
14:57 -1.2 °C -6.6 °C 34361.1 hPa SW 26.9 km/h 26.9 km/h 56 % 0 mm
15:02 -0.9 °C -6.3 °C 34361.1 hPa SW 15 km/h 15 km/h 56 % 0 mm
15:07 -1.1 °C -6.5 °C 34361.1 hPa SW 20.9 km/h 20.9 km/h 56 % 0 mm
15:12 -1 °C -6.4 °C 34361.1 hPa South 23.8 km/h 23.8 km/h 56 % 0 mm
15:17 -0.8 °C -6.3 °C 34361.1 hPa WSW 15 km/h 15 km/h 56 % 0 mm
15:22 -0.6 °C -6.2 °C 34395 hPa SSW 20.9 km/h 20.9 km/h 55 % 0 mm
15:27 -0.9 °C -6.5 °C 34395 hPa South 20.9 km/h 20.9 km/h 55 % 0 mm
15:32 -0.7 °C -6.3 °C 34395 hPa SW 20.9 km/h 20.9 km/h 55 % 0 mm
15:37 -0.6 °C -6.3 °C 34395 hPa South 26.9 km/h 26.9 km/h 54 % 0 mm
15:42 -0.7 °C -6.3 °C 34395 hPa SSW 17.9 km/h 17.9 km/h 55 % 0 mm
15:44 -0.7 °C -6.3 °C 34395 hPa South 25.4 km/h 25.4 km/h 55 % 0 mm
15:49 -0.8 °C -6.4 °C 34395 hPa SW 26.9 km/h 26.9 km/h 55 % 0 mm
15:54 -0.6 °C -6.2 °C 34395 hPa SW 16.1 km/h 16.1 km/h 55 % 0 mm
15:59 -0.3 °C -6.1 °C 34395 hPa WSW 17.9 km/h 17.9 km/h 54 % 0 mm
16:04 -0.7 °C -6.5 °C 34395 hPa SSW 32.8 km/h 32.8 km/h 54 % 0 mm
16:09 -0.9 °C -6.5 °C 34361.1 hPa SW 23.8 km/h 23.8 km/h 55 % 0 mm
16:14 -0.9 °C -6.5 °C 34361.1 hPa SW 23.8 km/h 23.8 km/h 55 % 0 mm
16:19 -0.8 °C -6.3 °C 34361.1 hPa SSE 23.8 km/h 23.8 km/h 55 % 0 mm
16:24 -0.7 °C -6.3 °C 34361.1 hPa SSW 27.7 km/h 27.7 km/h 55 % 0 mm
16:29 -0.9 °C -6.5 °C 34361.1 hPa South 15 km/h 15 km/h 55 % 0 mm
16:34 -0.5 °C -6.3 °C 34361.1 hPa SW 11.1 km/h 11.1 km/h 54 % 0 mm
16:39 -0.3 °C -6.1 °C 34361.1 hPa SW 25.9 km/h 25.9 km/h 54 % 0 mm
16:44 -0.5 °C -6.3 °C 34361.1 hPa South 15 km/h 15 km/h 54 % 0 mm
16:49 -0.3 °C -6.3 °C 34361.1 hPa SW 11.9 km/h 11.9 km/h 53 % 0 mm
16:54 -0.4 °C -6.3 °C 34361.1 hPa SSW 16.6 km/h 16.6 km/h 53 % 0 mm
16:59 -0.3 °C -6.2 °C 34361.1 hPa West 11.9 km/h 11.9 km/h 53 % 0 mm
17:04 -0.2 °C -6.2 °C 34361.1 hPa West 17.9 km/h 17.9 km/h 53 % 0 mm
17:09 -0.1 °C -6.3 °C 34327.3 hPa SSE 15 km/h 15 km/h 52 % 0 mm
17:14 -0.4 °C -6.6 °C 34327.3 hPa SW 15 km/h 15 km/h 52 % 0 mm
17:19 -0.2 °C -6.2 °C 34327.3 hPa SW 15.6 km/h 15.6 km/h 53 % 0 mm
17:24 -0.2 °C -6.3 °C 34327.3 hPa SSW 17.9 km/h 17.9 km/h 52 % 0 mm
17:29 -0.1 °C -6.3 °C 34327.3 hPa South 15.3 km/h 15.3 km/h 52 % 0 mm
17:34 0.1 °C -5.9 °C 34327.3 hPa SW 20.9 km/h 20.9 km/h 53 % 0 mm
17:39 -0.1 °C -6.2 °C 34327.3 hPa SSW 20.9 km/h 20.9 km/h 52 % 0 mm
17:44 -0.1 °C -6.3 °C 34327.3 hPa WSW 19.6 km/h 19.6 km/h 52 % 0 mm
17:49 -0.1 °C -6.3 °C 34327.3 hPa SW 11.9 km/h 11.9 km/h 52 % 0 mm
17:54 -0.1 °C -6.2 °C 34327.3 hPa NNE 20.9 km/h 20.9 km/h 52 % 0 mm
17:59 -0.1 °C -6.3 °C 34327.3 hPa SW 6 km/h 6 km/h 52 % 0 mm
18:04 -0.3 °C -6.5 °C 34327.3 hPa South 15 km/h 15 km/h 52 % 0 mm
18:09 -0.3 °C -6.2 °C 34327.3 hPa SSW 15 km/h 15 km/h 53 % 0 mm
18:14 -0.3 °C -6.3 °C 34327.3 hPa SSW 11.9 km/h 11.9 km/h 53 % 0 mm
18:19 -0.4 °C -6.3 °C 34327.3 hPa SSW 9 km/h 9.3 km/h 53 % 0 mm
18:24 -0.6 °C -6.5 °C 34327.3 hPa SW 20.9 km/h 20.9 km/h 53 % 0 mm
18:29 -0.6 °C -6.5 °C 34327.3 hPa SSE 17.9 km/h 17.9 km/h 53 % 0 mm
18:34 -0.4 °C -6.5 °C 34327.3 hPa South 11.9 km/h 11.9 km/h 52 % 0 mm
18:35 -0.4 °C -6.6 °C 34327.3 hPa SW 19.2 km/h 19.2 km/h 52 % 0 mm
18:40 -0.6 °C -6.6 °C 34327.3 hPa SW 15 km/h 15 km/h 53 % 0 mm
18:45 -0.7 °C -6.7 °C 34327.3 hPa ESE 11.9 km/h 11.9 km/h 53 % 0 mm
18:50 -0.8 °C -6.7 °C 34327.3 hPa SW 17.9 km/h 17.9 km/h 53 % 0 mm
18:55 -0.9 °C -7 °C 34327.3 hPa SW 15.3 km/h 15.3 km/h 52 % 0 mm
19:00 -1.1 °C -7.1 °C 34327.3 hPa South 17.9 km/h 17.9 km/h 52 % 0 mm
19:05 -1.1 °C -7 °C 34327.3 hPa SW 15 km/h 15 km/h 53 % 0 mm
19:10 -0.9 °C -6.8 °C 34327.3 hPa SSW 22 km/h 22 km/h 53 % 0 mm
19:15 -0.9 °C -6.8 °C 34327.3 hPa SW 9.3 km/h 9.3 km/h 53 % 0 mm
19:20 -0.9 °C -6.8 °C 34327.3 hPa SW 11.1 km/h 11.1 km/h 53 % 0 mm
19:25 -0.9 °C -6.8 °C 34327.3 hPa WSW 15 km/h 15 km/h 53 % 0 mm
19:30 -0.9 °C -6.8 °C 34327.3 hPa WSW 15 km/h 15 km/h 53 % 0 mm
19:35 -1.2 °C -6.9 °C 34327.3 hPa West 15 km/h 15 km/h 54 % 0 mm
19:40 -1.2 °C -6.9 °C 34293.4 hPa SSW 11.9 km/h 11.9 km/h 54 % 0 mm
19:41 -1.2 °C -6.9 °C 34293.4 hPa SSW 16.6 km/h 16.6 km/h 54 % 0 mm
19:45 -4.2 °C -6.3 °C 34395 hPa ESE 7.7 km/h 12.9 km/h 80 % 0 mm
19:46 -1.4 °C -7.1 °C 34293.4 hPa SSW 15 km/h 15 km/h 54 % 0 mm
19:51 -1.4 °C -7.2 °C 34293.4 hPa SSW 15.3 km/h 15.3 km/h 54 % 0 mm
19:55 -4.3 °C -6.3 °C 34395 hPa East 5.1 km/h 10.3 km/h 80 % 0 mm
19:56 -1.5 °C -7.2 °C 34361.1 hPa WSW 15 km/h 15 km/h 54 % 0 mm
20:01 -1.6 °C -7.3 °C 34361.1 hPa SW 15.6 km/h 15.6 km/h 54 % 0 mm
20:06 -1.6 °C -7.3 °C 34361.1 hPa SSE 11.9 km/h 11.9 km/h 54 % 0 mm
20:11 -1.7 °C -7.3 °C 34327.3 hPa SW 11.9 km/h 11.9 km/h 54 % 0 mm
20:15 -4.2 °C -6.2 °C 34395 hPa East 7.7 km/h 12.9 km/h 81 % 0 mm
20:16 -1.8 °C -7.3 °C 34327.3 hPa SW 11.9 km/h 11.9 km/h 55 % 0 mm
20:21 -1.7 °C -7.3 °C 34327.3 hPa SW 15 km/h 15 km/h 55 % 0 mm
20:25 -4.3 °C -6.2 °C 34395 hPa East 5.1 km/h 10.3 km/h 81 % 0 mm
20:26 -1.8 °C -7.2 °C 34327.3 hPa WSW 6.3 km/h 6.3 km/h 56 % 0 mm
20:31 -1.8 °C -7.2 °C 34327.3 hPa WSW 6.8 km/h 6.8 km/h 56 % 0 mm
20:35 -4.2 °C -6.3 °C 34395 hPa East 2.6 km/h 5.1 km/h 80 % 0 mm
20:36 -2 °C -7.3 °C 34327.3 hPa SW 8.5 km/h 8.5 km/h 56 % 0 mm
20:41 -2.1 °C -7.4 °C 34293.4 hPa South 9 km/h 9 km/h 56 % 0 mm
20:45 -4.2 °C -6.3 °C 34428.8 hPa ENE 7.7 km/h 10.3 km/h 80 % 0 mm
20:46 -2.2 °C -7.3 °C 34293.4 hPa East 15 km/h 15 km/h 57 % 0 mm
20:51 -2.6 °C -7.3 °C 34293.4 hPa SE 15 km/h 15 km/h 60 % 0 mm
20:55 -4.2 °C -6.3 °C 34428.8 hPa East 5.1 km/h 7.7 km/h 80 % 0 mm
20:56 -2.7 °C -7.1 °C 34327.3 hPa ESE 26.9 km/h 26.9 km/h 62 % 0 mm
21:01 -3 °C -6.9 °C 34327.3 hPa ESE 23.8 km/h 23.8 km/h 65 % 0 mm
21:05 -4.2 °C -6.3 °C 34428.8 hPa East 7.7 km/h 7.7 km/h 80 % 0 mm
21:06 -3.1 °C -6.9 °C 34327.3 hPa ESE 20.9 km/h 20.9 km/h 66 % 0 mm
21:11 -3.1 °C -6.7 °C 34327.3 hPa ESE 26.9 km/h 26.9 km/h 68 % 0 mm
21:15 -4.3 °C -6.3 °C 34395 hPa East 7.7 km/h 7.7 km/h 80 % 0 mm
21:16 -3.2 °C -6.8 °C 34327.3 hPa SSE 17.9 km/h 17.9 km/h 68 % 0 mm
21:21 -3.3 °C -6.7 °C 34327.3 hPa ENE 17.9 km/h 17.9 km/h 69 % 0 mm
21:25 -4.3 °C -6.3 °C 34395 hPa East 7.7 km/h 12.9 km/h 80 % 0 mm
21:26 -3.4 °C -6.7 °C 34327.3 hPa ENE 15 km/h 15 km/h 70 % 0 mm
21:31 -3.5 °C -6.6 °C 34327.3 hPa SE 15.6 km/h 15.6 km/h 71 % 0 mm
21:35 -4.3 °C -6.3 °C 34395 hPa East 7.7 km/h 10.3 km/h 80 % 0 mm
21:36 -3.5 °C -6.6 °C 34327.3 hPa ESE 15 km/h 15 km/h 71 % 0 mm
21:41 -3.5 °C -6.6 °C 34361.1 hPa ESE 15 km/h 15 km/h 71 % 0 mm
21:45 -4.3 °C -6.3 °C 34395 hPa East 5.1 km/h 10.3 km/h 81 % 0 mm
21:46 -3.5 °C -6.6 °C 34361.1 hPa ENE 11.9 km/h 11.9 km/h 71 % 0 mm
21:51 -3.5 °C -6.6 °C 34361.1 hPa East 15 km/h 15 km/h 71 % 0 mm
21:55 -4.4 °C -6.3 °C 34395 hPa ENE 5.1 km/h 7.7 km/h 81 % 0 mm
21:56 -3.6 °C -6.7 °C 34361.1 hPa NNW 6 km/h 6 km/h 71 % 0 mm
22:01 -3.6 °C -6.7 °C 34361.1 hPa ESE 11.9 km/h 11.9 km/h 71 % 0 mm
22:05 -4.4 °C -6.3 °C 34361.1 hPa East 2.6 km/h 10.3 km/h 81 % 0 mm
22:06 -3.6 °C -6.7 °C 34361.1 hPa ESE 9 km/h 9 km/h 71 % 0 mm
22:11 -3.6 °C -6.8 °C 34395 hPa ESE 11.9 km/h 11.9 km/h 71 % 0 mm
22:15 -4.4 °C -6.3 °C 34395 hPa East 5.1 km/h 7.7 km/h 81 % 0 mm
22:16 -3.7 °C -6.7 °C 34395 hPa ENE 15 km/h 15 km/h 72 % 0 mm
22:21 -3.7 °C -6.7 °C 34395 hPa ENE 11.9 km/h 11.9 km/h 72 % 0 mm
22:25 -4.3 °C -6.3 °C 34395 hPa East 5.1 km/h 7.7 km/h 81 % 0 mm
22:26 -3.7 °C -6.7 °C 34395 hPa East 9 km/h 9 km/h 72 % 0 mm
22:31 -3.7 °C -6.7 °C 34395 hPa East 11.9 km/h 11.9 km/h 72 % 0 mm
22:35 -4.3 °C -6.3 °C 34395 hPa East 5.1 km/h 5.1 km/h 81 % 0 mm
22:36 -3.8 °C -6.8 °C 34395 hPa East 9.3 km/h 9.3 km/h 72 % 0 mm
22:41 -3.8 °C -6.8 °C 34395 hPa ESE 6 km/h 6 km/h 72 % 0 mm
22:45 -4.3 °C -6.3 °C 34395 hPa ESE 2.6 km/h 7.7 km/h 80 % 0 mm
22:46 -3.8 °C -6.8 °C 34395 hPa ESE 9 km/h 9 km/h 72 % 0 mm
22:51 -3.8 °C -6.8 °C 34395 hPa ESE 5.1 km/h 5.1 km/h 72 % 0 mm
22:55 -4.3 °C -6.3 °C 34395 hPa Calm   10.3 km/h 80 % 0 mm
22:56 -3.9 °C -7 °C 34395 hPa ESE 3.7 km/h 3.7 km/h 71 % 0 mm
23:01 -3.9 °C -6.9 °C 34395 hPa ESE 6 km/h 6 km/h 72 % 0 mm
23:05 -4.3 °C -6.3 °C 34395 hPa Calm   2.6 km/h 80 % 0 mm
23:06 -3.9 °C -6.8 °C 34395 hPa East 6.3 km/h 6.3 km/h 73 % 0 mm
23:11 -3.9 °C -6.6 °C 34361.1 hPa ESE 16.1 km/h 16.1 km/h 75 % 0 mm
23:15 -4.3 °C -6.3 °C 34395 hPa Calm   5.1 km/h 80 % 0 mm
23:16 -4 °C -6.5 °C 34361.1 hPa ENE 10.3 km/h 10.3 km/h 76 % 0 mm
23:21 -4 °C -6.5 °C 34361.1 hPa ENE 11.9 km/h 11.9 km/h 76 % 0 mm
23:25 -4.3 °C -6.3 °C 34395 hPa East 2.6 km/h 5.1 km/h 80 % 0 mm
23:26 -4.1 °C -6.6 °C 34395 hPa ESE 12.2 km/h 12.2 km/h 76 % 0 mm
23:31 -4.1 °C -6.5 °C 34395 hPa NNE 9 km/h 9 km/h 77 % 0 mm
23:35 -4.3 °C -6.3 °C 34395 hPa East 7.7 km/h 7.7 km/h 80 % 0 mm
23:36 -4.1 °C -6.5 °C 34395 hPa East 6 km/h 6 km/h 77 % 0 mm
23:41 -4.1 °C -6.5 °C 34428.8 hPa East 6 km/h 6 km/h 77 % 0 mm
23:45 -4.4 °C -6.4 °C 34395 hPa East 5.1 km/h 7.7 km/h 80 % 0 mm
23:46 -4.2 °C -6.4 °C 34428.8 hPa ESE 15 km/h 15 km/h 78 % 0 mm
23:51 -4.2 °C -6.4 °C 34428.8 hPa NE 9 km/h 9 km/h 78 % 0 mm
23:55 -4.3 °C -6.5 °C 34395 hPa Calm   5.1 km/h 79 % 0 mm
23:56 -4.2 °C -6.4 °C 34428.8 hPa NE 10.3 km/h 10.3 km/h 78 % 0 mm
Meteo Sesrovires
Elogis d' Weather Underground - 2 mb

Guio original per  Jim McMurry - jmcmurry@mwt.net Adaptat per a la plantilla per  Wim van der Kuil - Leuven-Template.eu

Trobareu la nostra informacio del temps tambe a:

Weather Underground

AWEKAS